This is the latest recevied weather packets stored in our database for station/object LRBM. If no packets are shown the sender has not sent any weather packets the latest 10 day(s).
| Time | Temp. | Humidity | Pressure | Rain* | Wind** | Luminosity | Snow |
|---|---|---|---|---|---|---|---|
| 1777702716 | 11.11° C | 58% | 1024 hPa | - | - | - | - |
| 1777701816 | 11.11° C | 58% | 1024 hPa | - | - | - | - |
| 1777700916 | 8.89° C | 62% | 1024 hPa | - | - | - | - |
| 1777700016 | 8.89° C | 62% | 1024 hPa | - | - | - | - |
| 1777699115 | 7.22° C | 71% | 1024 hPa | - | - | - | - |
| 1777698215 | 7.22° C | 71% | 1024 hPa | - | - | - | - |
| 1777697315 | 7.22° C | 71% | 1024 hPa | - | - | - | - |
| 1777696415 | 7.22° C | 71% | 1024 hPa | - | - | - | - |
| 1777695516 | 3.89° C | 87% | 1024 hPa | - | - | - | - |
| 1777694615 | 3.89° C | 87% | 1024 hPa | - | - | - | - |
| 1777693795 | 2.78° C | 81% | 1023 hPa | - | - | - | - |
| 1777692815 | 2.78° C | 81% | 1023 hPa | - | - | - | - |
| 1777691915 | 3.89° C | 81% | 1023 hPa | - | - | - | - |
| 1777691015 | 3.89° C | 81% | 1023 hPa | - | - | - | - |
| 1777690115 | 2.78° C | 87% | 1023 hPa | - | - | - | - |
| 1777689215 | 2.78° C | 87% | 1023 hPa | - | - | - | - |
| 1777688316 | 2.78° C | 87% | 1023 hPa | - | - | - | - |
| 1777687416 | 2.78° C | 87% | 1023 hPa | - | - | - | - |
| 1777686516 | 2.78° C | 81% | 1023 hPa | - | - | - | - |
| 1777685615 | 2.78° C | 81% | 1023 hPa | - | - | - | - |
| 1777684716 | 2.78° C | 81% | 1023 hPa | - | - | - | - |
| 1777683815 | 2.78° C | 81% | 1023 hPa | - | - | - | - |
| 1777682915 | 3.89° C | 75% | 1024 hPa | - | - | - | - |
| 1777682016 | 3.89° C | 75% | 1024 hPa | - | - | - | - |
| 1777681115 | 5° C | 70% | 1024 hPa | - | - | - | - |
* Rain since midnight (hover to see other rain measurements)
** Current wind speed in m/s (hover to see current wind gust speed)